Time;durP1;ratioP1;P1;durP2;ratioP2;P2;SDS_P1;SDS_P2;PMS_P1;PMS_P2;Temp;Humidity;BMP_temperature;BMP_pressure;BME280_temperature;BME280_humidity;BME280_pressure;Samples;Min_cycle;Max_cycle;Signal;HPM_P1;HPM_P2
2023/08/04 00:01:08;;;;;;;;;;;;;;;23.57;50.08;99808.45;2257684;77;49983;-77
2023/08/04 00:04:10;;;;;;;;;;;;;;;23.57;50.09;99807.11;2233883;78;49765;-76
2023/08/04 00:07:12;;;;;;;;;;;;;;;23.59;50.05;99814.98;2277381;77;50412;-76
2023/08/04 00:10:13;;;;;;;;;;;;;;;23.59;50.07;99821.73;2257991;78;50755;-77
2023/08/04 00:13:15;;;;;;;;;;;;;;;23.58;50.05;99823.62;2277494;77;51505;-76
2023/08/04 00:16:16;;;;;;;;;;;;;;;23.56;50.07;99823.03;2257861;77;51678;-77
2023/08/04 00:19:18;;;;;;;;;;;;;;;23.57;50.09;99826.01;2257786;78;51509;-77
2023/08/04 00:22:19;;;;;;;;;;;;;;;23.57;50.04;99836.81;2258063;77;51396;-76
2023/08/04 00:25:21;;;;;;;;;;;;;;;23.57;50.03;99842.75;2277574;77;49899;-75
2023/08/04 00:28:23;;;;;;;;;;;;;;;23.56;50.04;99843.81;2285426;76;50992;-75
2023/08/04 00:31:24;;;;;;;;;;;;;;;23.55;50.05;99845.67;2301141;76;51529;-76
2023/08/04 00:34:26;;;;;;;;;;;;;;;23.56;50.02;99845.98;2278249;77;50605;-76
2023/08/04 00:37:28;;;;;;;;;;;;;;;23.55;50.02;99848.91;2278898;77;51423;-76
2023/08/04 00:40:30;;;;;;;;;;;;;;;23.55;50.01;99856.47;2253822;77;49522;-76
2023/08/04 00:43:32;;;;;;;;;;;;;;;23.56;50.01;99853.27;2278917;77;50716;-76
2023/08/04 00:46:33;;;;;;;;;;;;;;;23.56;50.03;99859.48;2286988;76;51532;-77
2023/08/04 00:49:35;;;;;;;;;;;;;;;23.55;50.01;99861.88;2282698;78;51387;-77
2023/08/04 00:52:37;;;;;;;;;;;;;;;23.55;50.02;99863.22;2282602;77;51497;-76
2023/08/04 00:55:38;;;;;;;;;;;;;;;23.55;49.97;99857.82;2284133;75;50763;-76
2023/08/04 00:58:40;;;;;;;;;;;;;;;23.55;50.01;99860.52;2319704;76;51498;-75
2023/08/04 01:01:41;;;;;;;;;;;;;;;23.54;50.01;99857.54;2295277;76;51439;-78
2023/08/04 01:04:43;;;;;;;;;;;;;;;23.55;50.02;99862.41;2269680;76;53284;-76
2023/08/04 01:07:52;;;;;;;;;;;;;;;23.54;50.04;99866.98;2319147;75;51456;-77
2023/08/04 01:10:55;;;;;;;;;;;;;;;23.54;50.02;99863.47;2318538;76;51468;-77
2023/08/04 01:13:57;;;;;;;;;;;;;;;23.53;50.04;99868.06;2317488;76;51470;-77
2023/08/04 01:17:00;;;;;;;;;;;;;;;23.54;50.04;99875.09;2319077;75;51436;-76
2023/08/04 01:20:03;;;;;;;;;;;;;;;23.53;50.00;99869.91;2319189;76;51471;-76
2023/08/04 01:23:04;;;;;;;;;;;;;;;23.53;50.04;99869.91;2295167;76;50765;-77
2023/08/04 01:26:10;;;;;;;;;;;;;;;23.52;50.04;99878.55;2319658;75;51389;-77
2023/08/04 01:29:09;;;;;;;;;;;;;;;23.52;50.00;99889.34;2320598;75;23014;-77
2023/08/04 01:32:11;;;;;;;;;;;;;;;23.52;50.02;99891.23;2319561;76;51296;-78
2023/08/04 01:35:12;;;;;;;;;;;;;;;23.52;50.03;99900.15;2319510;76;51394;-77
2023/08/04 01:38:14;;;;;;;;;;;;;;;23.52;50.05;99906.09;2294911;76;51485;-77
2023/08/04 01:41:15;;;;;;;;;;;;;;;23.51;50.06;99918.77;2308276;76;51331;-77
2023/08/04 01:44:17;;;;;;;;;;;;;;;23.53;50.09;99936.07;2295315;76;50265;-77
2023/08/04 01:47:19;;;;;;;;;;;;;;;23.51;50.11;99941.72;2295012;76;50138;-78
2023/08/04 01:50:20;;;;;;;;;;;;;;;23.51;50.13;99955.23;2319572;76;50160;-76
2023/08/04 01:53:22;;;;;;;;;;;;;;;23.51;50.11;99961.98;2308030;76;51138;-77
2023/08/04 01:56:23;;;;;;;;;;;;;;;23.51;50.17;99971.42;2295473;75;50251;-77
2023/08/04 01:59:25;;;;;;;;;;;;;;;23.51;50.16;99977.36;2320418;75;50616;-77
2023/08/04 02:02:27;;;;;;;;;;;;;;;23.51;50.16;99980.88;2319522;76;50660;-77
2023/08/04 02:05:28;;;;;;;;;;;;;;;23.52;50.18;99991.14;2295483;76;50693;-77
2023/08/04 02:08:30;;;;;;;;;;;;;;;23.51;50.20;99984.93;2319294;75;51592;-77
2023/08/04 02:11:32;;;;;;;;;;;;;;;23.50;50.16;99987.84;2295318;76;50261;-76
2023/08/04 02:14:33;;;;;;;;;;;;;;;23.50;50.20;99995.41;2319321;76;50320;-77
2023/08/04 02:17:36;;;;;;;;;;;;;;;23.50;50.14;99996.77;2269850;76;49515;-77
2023/08/04 02:20:37;;;;;;;;;;;;;;;23.51;50.13;99997.61;2295578;76;51570;-77
2023/08/04 02:23:39;;;;;;;;;;;;;;;23.48;50.16;99996.20;2295340;76;51473;-77
2023/08/04 02:26:40;;;;;;;;;;;;;;;23.49;50.12;100008.63;2320070;75;50252;-76
2023/08/04 02:29:42;;;;;;;;;;;;;;;23.49;50.14;100015.38;2299703;76;51168;-76
2023/08/04 02:32:44;;;;;;;;;;;;;;;23.50;50.14;100021.60;2299357;76;50244;-76
2023/08/04 02:35:46;;;;;;;;;;;;;;;23.49;50.20;100019.44;2333217;75;50651;-76
2023/08/04 02:38:48;;;;;;;;;;;;;;;23.47;50.26;100010.73;2333005;75;50403;-76
2023/08/04 02:41:49;;;;;;;;;;;;;;;23.47;50.24;100012.91;2299126;76;51210;-76
2023/08/04 02:44:54;;;;;;;;;;;;;;;23.48;50.25;100015.10;2299127;76;49700;-77
2023/08/04 02:47:56;;;;;;;;;;;;;;;23.48;50.24;100012.40;2299176;76;51771;-76
2023/08/04 02:50:59;;;;;;;;;;;;;;;23.48;50.18;100017.27;2299068;76;50746;-77
2023/08/04 02:54:01;;;;;;;;;;;;;;;23.46;50.18;100013.97;2299143;76;53046;-76
2023/08/04 02:57:02;;;;;;;;;;;;;;;23.48;50.15;100019.15;2324046;75;51424;-76
2023/08/04 03:00:04;;;;;;;;;;;;;;;23.46;50.14;100014.50;2286511;76;50729;-76
2023/08/04 03:03:06;;;;;;;;;;;;;;;23.47;50.13;100010.73;2319607;76;50518;-76
2023/08/04 03:06:08;;;;;;;;;;;;;;;23.46;50.13;100020.72;2307810;75;51642;-76
2023/08/04 03:09:09;;;;;;;;;;;;;;;23.45;50.15;100019.59;2295334;76;51559;-76
2023/08/04 03:12:11;;;;;;;;;;;;;;;23.45;50.10;100029.04;2295119;76;51508;-76
2023/08/04 03:15:12;;;;;;;;;;;;;;;23.45;50.14;100016.89;2319301;76;52222;-76
2023/08/04 03:18:14;;;;;;;;;;;;;;;23.45;50.14;100022.28;2319168;75;51566;-73
2023/08/04 03:21:16;;;;;;;;;;;;;;;23.44;50.13;100024.70;2295037;76;51527;-75
2023/08/04 03:24:17;;;;;;;;;;;;;;;23.45;50.10;100024.98;2319398;76;51561;-75
2023/08/04 03:27:19;;;;;;;;;;;;;;;23.45;50.10;100022.28;2312899;75;50280;-75
2023/08/04 03:30:20;;;;;;;;;;;;;;;23.43;50.13;100022.53;2298996;76;51255;-75
2023/08/04 03:33:22;;;;;;;;;;;;;;;23.44;50.15;100028.75;2309256;76;50392;-74
2023/08/04 03:36:23;;;;;;;;;;;;;;;23.44;50.13;100043.61;2300078;76;50617;-74
2023/08/04 03:39:27;;;;;;;;;;;;;;;23.44;50.11;100044.95;2320637;75;51441;-75
2023/08/04 03:42:28;;;;;;;;;;;;;;;23.44;50.10;100050.35;2296033;76;22439;-75
2023/08/04 03:45:30;;;;;;;;;;;;;;;23.43;50.11;100055.47;2295206;76;50089;-75
2023/08/04 03:48:31;;;;;;;;;;;;;;;23.43;50.11;100058.17;2319371;75;50374;-75
2023/08/04 03:51:33;;;;;;;;;;;;;;;23.43;50.14;100063.57;2295314;76;50418;-75
2023/08/04 03:54:34;;;;;;;;;;;;;;;23.43;50.10;100056.82;2308067;76;52544;-74
2023/08/04 03:57:36;;;;;;;;;;;;;;;23.43;50.11;100052.77;2295209;76;51427;-75
2023/08/04 04:00:38;;;;;;;;;;;;;;;23.43;50.10;100056.82;2295501;76;51080;-75
2023/08/04 04:03:39;;;;;;;;;;;;;;;23.43;50.10;100049.53;2295871;76;51407;-75
2023/08/04 04:06:41;;;;;;;;;;;;;;;23.43;50.08;100062.22;2264402;76;52420;-74
2023/08/04 04:09:42;;;;;;;;;;;;;;;23.44;50.06;100066.55;2311366;76;50786;-75
2023/08/04 04:12:44;;;;;;;;;;;;;;;23.44;50.09;100071.95;2324099;76;50596;-74
2023/08/04 04:15:46;;;;;;;;;;;;;;;23.44;50.09;100079.52;2321179;75;50820;-74
2023/08/04 04:18:47;;;;;;;;;;;;;;;23.45;50.03;100081.19;2275724;76;50889;-74
2023/08/04 04:21:49;;;;;;;;;;;;;;;23.44;50.06;100076.82;2309623;76;50553;-75
2023/08/04 04:24:50;;;;;;;;;;;;;;;23.43;50.07;100081.94;2270730;78;50660;-75
2023/08/04 04:27:52;;;;;;;;;;;;;;;23.45;50.04;100087.09;2283169;76;50296;-75
2023/08/04 04:30:54;;;;;;;;;;;;;;;23.44;50.07;100097.07;2271207;78;51164;-75
2023/08/04 04:33:55;;;;;;;;;;;;;;;23.45;50.03;100101.94;2284785;76;51499;-75
2023/08/04 04:36:58;;;;;;;;;;;;;;;23.47;50.00;100110.64;2292426;76;50222;-73
2023/08/04 04:39:59;;;;;;;;;;;;;;;23.45;50.02;100116.79;2320620;76;51660;-74
2023/08/04 04:43:01;;;;;;;;;;;;;;;23.46;50.01;100119.28;2269975;76;52395;-74
2023/08/04 04:46:03;;;;;;;;;;;;;;;23.46;50.01;100121.16;2320271;75;51531;-74
2023/08/04 04:49:05;;;;;;;;;;;;;;;23.46;50.03;100127.91;2295159;76;51749;-75
2023/08/04 04:52:06;;;;;;;;;;;;;;;23.46;50.02;100125.20;2319482;76;51421;-75
2023/08/04 04:55:08;;;;;;;;;;;;;;;23.46;50.03;100133.31;2295063;76;52635;-75
2023/08/04 04:58:12;;;;;;;;;;;;;;;23.47;50.02;100137.64;2294848;76;50056;-74
2023/08/04 05:01:13;;;;;;;;;;;;;;;23.46;50.03;100140.06;2295470;76;51492;-75
2023/08/04 05:04:15;;;;;;;;;;;;;;;23.48;50.02;100150.11;2319402;76;50622;-75
2023/08/04 05:07:17;;;;;;;;;;;;;;;23.48;50.03;100154.16;2305123;76;52487;-76
2023/08/04 05:10:18;;;;;;;;;;;;;;;23.49;50.01;100149.05;2310028;76;50386;-76
2023/08/04 05:13:20;;;;;;;;;;;;;;;23.51;50.01;100160.45;2309078;75;50323;-74
2023/08/04 05:16:21;;;;;;;;;;;;;;;23.51;50.03;100159.11;2308831;75;51537;-75
2023/08/04 05:19:23;;;;;;;;;;;;;;;23.49;50.04;100170.66;2309236;75;51399;-75
2023/08/04 05:22:25;;;;;;;;;;;;;;;23.45;50.06;100162.69;2309296;76;50607;-75
2023/08/04 05:25:26;;;;;;;;;;;;;;;23.44;50.09;100158.36;2321380;76;50349;-75
2023/08/04 05:28:30;;;;;;;;;;;;;;;23.46;50.08;100175.16;2308972;76;52130;-75
2023/08/04 05:31:31;;;;;;;;;;;;;;;23.46;50.06;100174.62;2309228;76;52405;-75
2023/08/04 05:34:33;;;;;;;;;;;;;;;23.48;50.02;100183.87;2309323;76;51582;-75
2023/08/04 05:37:34;;;;;;;;;;;;;;;23.50;49.99;100183.63;2299038;76;51447;-75
2023/08/04 05:40:36;;;;;;;;;;;;;;;23.53;49.94;100183.16;2288807;76;50105;-74
2023/08/04 05:43:38;;;;;;;;;;;;;;;23.52;49.93;100190.45;2307872;76;51164;-75
2023/08/04 05:46:39;;;;;;;;;;;;;;;23.51;49.97;100190.16;2319116;75;50229;-75
2023/08/04 05:49:41;;;;;;;;;;;;;;;23.51;49.96;100195.56;2319542;76;50715;-75
2023/08/04 05:52:42;;;;;;;;;;;;;;;23.50;49.99;100201.99;2295259;76;50179;-75
2023/08/04 05:55:44;;;;;;;;;;;;;;;23.50;49.97;100211.97;2307779;75;51749;-75
2023/08/04 05:58:46;;;;;;;;;;;;;;;23.52;49.96;100208.00;2319218;76;50714;-76
2023/08/04 06:01:47;;;;;;;;;;;;;;;23.57;49.88;100213.55;2295267;76;51428;-75
2023/08/04 06:04:49;;;;;;;;;;;;;;;23.65;49.76;100216.46;2319566;76;51558;-74
2023/08/04 06:07:52;;;;;;;;;;;;;;;23.77;49.57;100225.48;2292955;76;51710;-74
2023/08/04 06:10:53;;;;;;;;;;;;;;;23.77;49.76;100219.27;2316972;76;50307;-75
2023/08/04 06:13:55;;;;;;;;;;;;;;;23.89;49.69;100228.22;2321207;76;49969;-74
2023/08/04 06:16:57;;;;;;;;;;;;;;;23.96;49.63;100226.26;2321033;75;50266;-75
2023/08/04 06:19:58;;;;;;;;;;;;;;;24.02;49.57;100224.52;2309170;76;50840;-75
2023/08/04 06:23:00;;;;;;;;;;;;;;;24.02;49.57;100228.06;2321390;75;52617;-75
2023/08/04 06:26:02;;;;;;;;;;;;;;;24.04;49.51;100232.69;2309106;75;51502;-74
2023/08/04 06:29:04;;;;;;;;;;;;;;;24.04;49.55;100241.33;2320883;76;50700;-76
2023/08/04 06:32:07;;;;;;;;;;;;;;;24.03;49.60;100246.45;2309009;76;52430;-76
2023/08/04 06:35:08;;;;;;;;;;;;;;;23.91;49.78;100249.09;2309243;76;50757;-76
2023/08/04 06:38:10;;;;;;;;;;;;;;;23.97;49.50;100256.30;2306089;76;50667;-75
2023/08/04 06:41:12;;;;;;;;;;;;;;;23.90;49.74;100260.97;2319582;76;50046;-75
2023/08/04 06:44:13;;;;;;;;;;;;;;;23.84;49.76;100271.31;2307901;76;50072;-75
2023/08/04 06:47:15;;;;;;;;;;;;;;;23.85;49.71;100281.91;2319146;75;50265;-75
2023/08/04 06:50:16;;;;;;;;;;;;;;;23.84;49.59;100282.97;2319466;76;50321;-76
2023/08/04 06:53:18;;;;;;;;;;;;;;;23.90;49.44;100282.58;2295247;76;52358;-76
2023/08/04 06:56:20;;;;;;;;;;;;;;;23.88;49.41;100292.25;2270651;75;52414;-76
2023/08/04 06:59:21;;;;;;;;;;;;;;;23.87;49.42;100289.80;2296045;76;50311;-76
2023/08/04 07:02:23;;;;;;;;;;;;;;;23.86;49.47;100294.88;2295242;76;51600;-76
2023/08/04 07:05:26;;;;;;;;;;;;;;;24.01;49.38;100292.61;2319525;76;50769;-76
2023/08/04 07:08:27;;;;;;;;;;;;;;;24.06;49.47;100291.94;2307624;76;50863;-75
2023/08/04 07:11:29;;;;;;;;;;;;;;;24.03;49.43;100289.16;2300222;76;50786;-75
2023/08/04 07:14:30;;;;;;;;;;;;;;;23.99;49.45;100292.01;2299921;76;50222;-75
2023/08/04 07:17:32;;;;;;;;;;;;;;;23.97;49.38;100296.84;2300019;76;50748;-75
2023/08/04 07:20:33;;;;;;;;;;;;;;;23.92;49.38;100299.40;2300226;76;50623;-76
2023/08/04 07:23:35;;;;;;;;;;;;;;;23.98;49.22;100305.77;2300307;76;51390;-76
2023/08/04 07:26:37;;;;;;;;;;;;;;;23.95;49.39;100317.03;2321858;76;51379;-75
2023/08/04 07:29:38;;;;;;;;;;;;;;;23.97;49.24;100318.46;2322021;75;51377;-76
2023/08/04 07:32:40;;;;;;;;;;;;;;;24.01;49.30;100319.64;2300215;76;51638;-75
2023/08/04 07:35:41;;;;;;;;;;;;;;;24.01;49.36;100330.45;2298982;76;51419;-76
2023/08/04 07:38:43;;;;;;;;;;;;;;;24.00;49.30;100324.76;2299565;76;51528;-76
2023/08/04 07:41:45;;;;;;;;;;;;;;;23.99;49.35;100320.92;2321281;76;50249;-76
2023/08/04 07:44:46;;;;;;;;;;;;;;;24.05;49.28;100315.97;2283328;76;51197;-75
2023/08/04 07:47:48;;;;;;;;;;;;;;;24.04;49.34;100335.39;2321178;76;50751;-75
2023/08/04 07:50:50;;;;;;;;;;;;;;;24.06;49.23;100335.18;2321273;76;50598;-75
2023/08/04 07:53:51;;;;;;;;;;;;;;;24.07;49.16;100339.02;2321340;75;51504;-75
2023/08/04 07:56:53;;;;;;;;;;;;;;;24.12;49.22;100344.57;2321117;76;50229;-76
2023/08/04 07:59:55;;;;;;;;;;;;;;;24.16;49.14;100345.46;2309023;75;50188;-76
2023/08/04 08:02:56;;;;;;;;;;;;;;;24.10;49.05;100349.37;2321507;76;51483;-76
2023/08/04 08:05:58;;;;;;;;;;;;;;;24.06;48.98;100354.92;2320995;75;51442;-76
2023/08/04 08:08:59;;;;;;;;;;;;;;;24.02;48.96;100355.09;2262982;76;52468;-76
2023/08/04 08:12:01;;;;;;;;;;;;;;;23.98;49.09;100361.98;2319429;76;51475;-75
2023/08/04 08:15:05;;;;;;;;;;;;;;;23.95;49.14;100360.27;2319321;76;51471;-76
2023/08/04 08:18:06;;;;;;;;;;;;;;;23.96;49.09;100363.27;2295665;76;22884;-76
2023/08/04 08:21:08;;;;;;;;;;;;;;;23.92;49.22;100361.55;2295236;76;50242;-76
2023/08/04 08:24:10;;;;;;;;;;;;;;;23.90;49.21;100365.00;2295219;76;51456;-76
2023/08/04 08:27:11;;;;;;;;;;;;;;;23.91;49.25;100366.64;2319200;75;50332;-76
2023/08/04 08:30:13;;;;;;;;;;;;;;;23.90;49.29;100377.16;2295185;76;50581;-76
2023/08/04 08:33:14;;;;;;;;;;;;;;;23.89;49.28;100383.59;2319554;76;51474;-77
2023/08/04 08:36:17;;;;;;;;;;;;;;;23.89;49.27;100384.95;2295310;75;50586;-75
2023/08/04 08:39:20;;;;;;;;;;;;;;;23.87;49.33;100398.70;2293071;76;50305;-75
2023/08/04 08:42:22;;;;;;;;;;;;;;;23.94;49.28;100397.26;2299342;76;52859;-76
2023/08/04 08:45:27;;;;;;;;;;;;;;;23.96;49.37;100393.81;2298887;76;50944;-76
2023/08/04 08:48:30;;;;;;;;;;;;;;;24.00;49.27;100396.37;2298366;76;51273;-76
2023/08/04 08:51:31;;;;;;;;;;;;;;;23.98;49.34;100401.17;2333157;75;50686;-76
2023/08/04 08:54:33;;;;;;;;;;;;;;;23.97;49.29;100409.00;2299140;76;50471;-75
2023/08/04 08:57:35;;;;;;;;;;;;;;;23.96;49.27;100415.43;2332847;75;50313;-76
2023/08/04 09:00:36;;;;;;;;;;;;;;;24.00;49.21;100409.89;2298748;75;51182;-75
2023/08/04 09:03:38;;;;;;;;;;;;;;;23.97;49.25;100414.41;2299345;76;51411;-75
2023/08/04 09:06:40;;;;;;;;;;;;;;;23.99;49.20;100412.80;2324050;75;51479;-76
2023/08/04 09:09:41;;;;;;;;;;;;;;;23.95;49.24;100411.09;2305379;76;50204;-75
2023/08/04 09:12:48;;;;;;;;;;;;;;;23.96;49.27;100420.02;2309048;76;52271;-76
2023/08/04 09:15:58;;;;;;;;;;;;;;;23.94;49.27;100420.23;2321154;75;50724;-76
2023/08/04 09:19:05;;;;;;;;;;;;;;;23.96;49.24;100418.14;2321373;76;22776;-76
2023/08/04 09:22:07;;;;;;;;;;;;;;;23.95;49.24;100420.55;2321304;76;50191;-75
2023/08/04 09:25:10;;;;;;;;;;;;;;;23.93;49.27;100432.10;2309033;76;50845;-75
2023/08/04 09:28:15;;;;;;;;;;;;;;;23.95;49.24;100427.84;2320402;75;51510;-76
2023/08/04 09:31:17;;;;;;;;;;;;;;;23.94;49.29;100430.22;2307502;76;51588;-75
2023/08/04 09:34:19;;;;;;;;;;;;;;;23.96;49.23;100437.05;2321351;76;50752;-76
2023/08/04 09:37:20;;;;;;;;;;;;;;;23.93;49.31;100436.69;2308940;76;50612;-75
2023/08/04 09:40:22;;;;;;;;;;;;;;;23.91;49.37;100439.06;2321288;76;52284;-76
2023/08/04 09:43:23;;;;;;;;;;;;;;;23.92;49.38;100442.62;2321256;76;51478;-76
2023/08/04 09:46:25;;;;;;;;;;;;;;;23.89;49.40;100440.34;2320887;75;51412;-76
2023/08/04 09:49:27;;;;;;;;;;;;;;;23.88;49.42;100435.47;2309013;76;49961;-76
2023/08/04 09:52:30;;;;;;;;;;;;;;;23.89;49.41;100441.69;2309177;76;50786;-76
2023/08/04 09:55:32;;;;;;;;;;;;;;;23.89;49.44;100433.58;2309213;76;51534;-76
2023/08/04 09:58:34;;;;;;;;;;;;;;;23.90;49.40;100429.85;2311683;75;49954;-76
2023/08/04 10:01:35;;;;;;;;;;;;;;;23.90;49.38;100421.75;2297162;76;51709;-76
2023/08/04 10:04:37;;;;;;;;;;;;;;;23.90;49.41;100419.05;2322055;76;50212;-75
2023/08/04 10:07:39;;;;;;;;;;;;;;;23.89;49.40;100424.13;2321901;76;50623;-76
2023/08/04 10:10:41;;;;;;;;;;;;;;;23.87;49.45;100432.48;2322239;76;50257;-75
2023/08/04 10:13:47;;;;;;;;;;;;;;;23.86;49.46;100435.39;2300182;76;52357;-75
2023/08/04 10:16:49;;;;;;;;;;;;;;;23.86;49.46;100436.74;2321709;76;51506;-75
2023/08/04 10:19:52;;;;;;;;;;;;;;;23.85;49.47;100447.26;2322125;75;52186;-75
2023/08/04 10:22:54;;;;;;;;;;;;;;;23.85;49.47;100439.16;2320911;75;51469;-76
2023/08/04 10:25:57;;;;;;;;;;;;;;;23.84;49.48;100454.55;2322017;76;50203;-75
2023/08/04 10:29:05;;;;;;;;;;;;;;;23.87;49.42;100457.33;2313113;76;50710;-76
2023/08/04 10:32:08;;;;;;;;;;;;;;;23.85;49.45;100457.53;2320448;75;22293;-76
2023/08/04 10:35:08;;;;;;;;;;;;;;;23.90;49.31;100448.77;2321471;76;22368;-76
2023/08/04 10:38:09;;;;;;;;;;;;;;;23.89;49.32;100448.45;2283120;76;52378;-76
2023/08/04 10:41:11;;;;;;;;;;;;;;;23.88;49.36;100453.56;2321412;76;50129;-76
2023/08/04 10:44:13;;;;;;;;;;;;;;;23.89;49.34;100455.20;2309265;76;50187;-76
2023/08/04 10:47:15;;;;;;;;;;;;;;;23.89;49.36;100461.45;2309035;76;51281;-76
2023/08/04 10:50:16;;;;;;;;;;;;;;;23.89;49.39;100464.16;2283658;76;51035;-76
2023/08/04 10:53:18;;;;;;;;;;;;;;;23.88;49.45;100467.89;2309248;76;50754;-76
2023/08/04 10:56:21;;;;;;;;;;;;;;;23.91;49.39;100454.47;2321098;75;51499;-76
2023/08/04 10:59:22;;;;;;;;;;;;;;;23.93;49.33;100463.71;2320719;76;50459;-76
2023/08/04 11:02:24;;;;;;;;;;;;;;;23.94;49.29;100459.95;2283451;76;49600;-75
2023/08/04 11:05:26;;;;;;;;;;;;;;;23.95;49.21;100452.98;2309348;76;50260;-75
2023/08/04 11:08:27;;;;;;;;;;;;;;;23.93;49.30;100453.72;2321177;75;51410;-77
2023/08/04 11:11:29;;;;;;;;;;;;;;;23.91;49.29;100446.36;2321310;76;50595;-76
2023/08/04 11:14:31;;;;;;;;;;;;;;;23.97;49.17;100444.63;2309084;76;50955;-76
2023/08/04 11:17:33;;;;;;;;;;;;;;;23.98;49.15;100438.19;2309093;76;50266;-76
2023/08/04 11:20:35;;;;;;;;;;;;;;;23.95;49.20;100431.89;2309535;76;51563;-76
2023/08/04 11:23:37;;;;;;;;;;;;;;;23.93;49.22;100437.51;2321518;76;51480;-75
2023/08/04 11:26:39;;;;;;;;;;;;;;;23.93;49.23;100431.28;2321185;75;51541;-76
2023/08/04 11:29:40;;;;;;;;;;;;;;;23.95;49.17;100428.66;2305927;76;51500;-76
2023/08/04 11:32:43;;;;;;;;;;;;;;;23.97;49.12;100441.92;2321674;76;51393;-75
2023/08/04 11:35:45;;;;;;;;;;;;;;;23.94;49.19;100444.55;2321296;75;51488;-76
2023/08/04 11:38:47;;;;;;;;;;;;;;;23.91;49.27;100455.81;2309223;76;52303;-76
2023/08/04 11:41:48;;;;;;;;;;;;;;;23.96;49.19;100453.80;2321668;76;51407;-75
2023/08/04 11:44:50;;;;;;;;;;;;;;;23.96;49.21;100442.45;2321397;75;50240;-75
2023/08/04 11:47:53;;;;;;;;;;;;;;;23.95;49.19;100450.27;2321265;75;51503;-76
2023/08/04 11:50:55;;;;;;;;;;;;;;;23.96;49.19;100458.67;2309608;76;50985;-76
2023/08/04 11:53:56;;;;;;;;;;;;;;;23.95;49.24;100467.02;2321442;75;51433;-76
2023/08/04 11:56:59;;;;;;;;;;;;;;;23.94;49.28;100471.58;2309526;75;50771;-76
2023/08/04 12:00:01;;;;;;;;;;;;;;;23.94;49.29;100476.98;2305167;76;51469;-76
2023/08/04 12:03:03;;;;;;;;;;;;;;;23.96;49.25;100489.75;2295526;76;50703;-76
2023/08/04 12:06:06;;;;;;;;;;;;;;;23.93;49.32;100489.38;2295269;75;49951;-76
2023/08/04 12:09:08;;;;;;;;;;;;;;;23.89;49.41;100488.48;2318449;76;50305;-76
2023/08/04 12:12:10;;;;;;;;;;;;;;;23.86;49.46;100493.48;2319494;76;50262;-76
2023/08/04 12:15:11;;;;;;;;;;;;;;;23.88;49.46;100503.55;2307829;76;51699;-77
2023/08/04 12:18:25;;;;;;;;;;;;;;;23.88;49.46;100496.80;2319182;75;50287;-76
2023/08/04 12:21:27;;;;;;;;;;;;;;;23.86;49.51;100501.59;2319432;76;50602;-76
2023/08/04 12:24:28;;;;;;;;;;;;;;;23.86;49.51;100497.01;2294979;76;50639;-76
2023/08/04 12:27:30;;;;;;;;;;;;;;;23.85;49.51;100485.91;2310870;75;51615;-76
2023/08/04 12:30:32;;;;;;;;;;;;;;;23.90;49.40;100485.25;2296619;76;50281;-76
2023/08/04 12:33:33;;;;;;;;;;;;;;;23.93;49.36;100483.45;2319458;76;50153;-76
2023/08/04 12:36:35;;;;;;;;;;;;;;;23.92;49.42;100479.11;2319246;75;50660;-76
2023/08/04 12:39:36;;;;;;;;;;;;;;;23.92;49.40;100480.45;2319422;76;50498;-75
2023/08/04 12:42:38;;;;;;;;;;;;;;;23.97;49.29;100493.27;2319462;76;50189;-75
2023/08/04 12:45:40;;;;;;;;;;;;;;;23.93;49.41;100485.33;2319339;76;50660;-76
2023/08/04 12:48:41;;;;;;;;;;;;;;;23.96;49.34;100493.81;2319153;76;51392;-76
2023/08/04 12:51:43;;;;;;;;;;;;;;;23.94;49.38;100506.70;2269601;76;52417;-76
2023/08/04 12:54:44;;;;;;;;;;;;;;;23.94;49.37;100511.30;2295098;76;51456;-76
2023/08/04 12:57:46;;;;;;;;;;;;;;;23.96;49.39;100517.31;2299798;76;51354;-76
2023/08/04 13:00:48;;;;;;;;;;;;;;;23.93;49.40;100526.69;2293099;76;52490;-76
2023/08/04 13:03:49;;;;;;;;;;;;;;;23.97;49.31;100522.50;2257928;77;52501;-76
2023/08/04 13:06:51;;;;;;;;;;;;;;;23.93;49.40;100519.93;2277410;77;51592;-76
2023/08/04 13:09:52;;;;;;;;;;;;;;;23.90;49.48;100525.78;2258325;78;51474;-76
2023/08/04 13:12:54;;;;;;;;;;;;;;;23.88;49.50;100533.28;2277581;77;50214;-76
2023/08/04 13:15:55;;;;;;;;;;;;;;;23.88;49.49;100530.58;2258395;77;51209;-76
2023/08/04 13:18:57;;;;;;;;;;;;;;;23.91;49.42;100531.48;2257048;78;50330;-76
2023/08/04 13:21:59;;;;;;;;;;;;;;;23.90;49.45;100529.84;2257646;78;50700;-76
2023/08/04 13:25:00;;;;;;;;;;;;;;;23.88;49.46;100527.88;2277465;77;51518;-77
2023/08/04 13:28:02;;;;;;;;;;;;;;;23.90;49.44;100525.25;2250026;76;51666;-76
2023/08/04 13:31:05;;;;;;;;;;;;;;;23.91;49.46;100536.35;2296875;76;50100;-76
2023/08/04 13:34:07;;;;;;;;;;;;;;;23.90;49.50;100537.95;2319567;76;51610;-76
2023/08/04 13:37:08;;;;;;;;;;;;;;;23.89;49.51;100541.67;2295003;76;51421;-77
2023/08/04 13:40:10;;;;;;;;;;;;;;;23.87;49.54;100539.74;2319644;76;51518;-76
2023/08/04 13:43:13;;;;;;;;;;;;;;;23.87;49.57;100537.05;2295338;76;51478;-76
2023/08/04 13:46:15;;;;;;;;;;;;;;;23.87;49.52;100528.41;2295094;75;50347;-76
2023/08/04 13:49:16;;;;;;;;;;;;;;;23.88;49.51;100522.47;2319604;76;51495;-76
2023/08/04 13:52:18;;;;;;;;;;;;;;;23.86;49.53;100515.10;2307954;76;50831;-76
2023/08/04 13:55:19;;;;;;;;;;;;;;;23.87;49.59;100516.77;2295228;76;50210;-76
2023/08/04 13:58:21;;;;;;;;;;;;;;;23.85;49.58;100506.17;2320629;75;50255;-76
2023/08/04 14:01:22;;;;;;;;;;;;;;;23.87;49.61;100514.08;2321499;76;50721;-76
2023/08/04 14:04:24;;;;;;;;;;;;;;;23.85;49.63;100521.56;2321430;76;50315;-77
2023/08/04 14:07:26;;;;;;;;;;;;;;;23.85;49.65;100531.03;2309414;76;50335;-76
2023/08/04 14:10:27;;;;;;;;;;;;;;;23.86;49.63;100532.67;2309364;76;50619;-76
2023/08/04 14:13:29;;;;;;;;;;;;;;;23.87;49.59;100527.58;2321726;75;51419;-75
2023/08/04 14:16:30;;;;;;;;;;;;;;;23.89;49.57;100528.16;2308940;75;52303;-76
2023/08/04 14:19:32;;;;;;;;;;;;;;;23.87;49.56;100513.55;2321467;76;51480;-76
2023/08/04 14:22:33;;;;;;;;;;;;;;;23.88;49.59;100517.89;2321495;75;50348;-76
2023/08/04 14:25:35;;;;;;;;;;;;;;;23.87;49.56;100517.59;2321403;76;50386;-75
2023/08/04 14:28:37;;;;;;;;;;;;;;;23.88;49.55;100519.77;2288396;76;52418;-76
2023/08/04 14:31:38;;;;;;;;;;;;;;;23.89;49.56;100537.63;2302468;76;50315;-76
2023/08/04 14:34:40;;;;;;;;;;;;;;;23.87;49.56;100531.11;2333178;76;50507;-76
2023/08/04 14:37:41;;;;;;;;;;;;;;;23.89;49.54;100538.48;2332989;75;50355;-76
2023/08/04 14:40:43;;;;;;;;;;;;;;;23.86;49.61;100545.65;2273752;76;51451;-76
2023/08/04 14:43:44;;;;;;;;;;;;;;;23.86;49.59;100558.34;2299257;76;51360;-75
2023/08/04 14:46:46;;;;;;;;;;;;;;;23.86;49.57;100555.11;2298902;76;51586;-76
2023/08/04 14:49:48;;;;;;;;;;;;;;;23.87;49.54;100551.91;2299126;76;51544;-76
2023/08/04 14:52:49;;;;;;;;;;;;;;;23.88;49.52;100564.36;2299039;76;51401;-76
2023/08/04 14:55:51;;;;;;;;;;;;;;;23.87;49.51;100553.26;2333147;75;51515;-76
2023/08/04 14:58:52;;;;;;;;;;;;;;;23.87;49.46;100566.77;2292801;76;51472;-76
2023/08/04 15:01:54;;;;;;;;;;;;;;;23.86;49.48;100566.44;2280823;76;50192;-76
2023/08/04 15:04:56;;;;;;;;;;;;;;;23.86;49.44;100562.39;2258046;77;51126;-76
2023/08/04 15:07:57;;;;;;;;;;;;;;;23.85;49.42;100563.45;2258102;77;50712;-76
2023/08/04 15:11:00;;;;;;;;;;;;;;;23.87;49.35;100565.41;2258008;78;50711;-76
2023/08/04 15:14:06;;;;;;;;;;;;;;;23.88;49.29;100571.11;2277817;78;50268;-76
2023/08/04 15:17:05;;;;;;;;;;;;;;;23.86;49.30;100565.91;2276640;77;22567;-76
2023/08/04 15:20:07;;;;;;;;;;;;;;;23.88;49.23;100548.14;2257477;78;50739;-76
2023/08/04 15:23:09;;;;;;;;;;;;;;;23.85;49.25;100538.60;2277734;77;51431;-77
2023/08/04 15:26:11;;;;;;;;;;;;;;;23.86;49.23;100528.61;2258007;76;51482;-76
2023/08/04 15:29:12;;;;;;;;;;;;;;;23.88;49.17;100521.12;2275853;76;52471;-77
2023/08/04 15:32:14;;;;;;;;;;;;;;;23.87;49.18;100523.53;2295263;76;51319;-76
2023/08/04 15:35:16;;;;;;;;;;;;;;;23.90;49.08;100527.95;2295287;76;51526;-76